sensor_id;sensor_type;location;lat;lon;timestamp;pressure;altitude;pressure_sealevel;temperature;humidity
35443;BME280;21561;55.654;37.592;2023-10-13T00:00:49;97957.75;;;8.53;100.00
35443;BME280;21561;55.654;37.592;2023-10-13T00:03:24;97956.13;;;8.49;100.00
35443;BME280;21561;55.654;37.592;2023-10-13T00:05:57;97965.56;;;8.51;100.00
35443;BME280;21561;55.654;37.592;2023-10-13T00:08:27;97954.41;;;8.49;100.00
35443;BME280;21561;55.654;37.592;2023-10-13T00:10:56;97982.91;;;8.46;100.00
35443;BME280;21561;55.654;37.592;2023-10-13T00:13:29;97971.72;;;8.46;100.00
35443;BME280;21561;55.654;37.592;2023-10-13T00:16:01;97991.47;;;8.48;100.00
35443;BME280;21561;55.654;37.592;2023-10-13T00:18:31;97969.22;;;8.41;100.00
35443;BME280;21561;55.654;37.592;2023-10-13T00:21:02;97971.84;;;8.39;100.00
35443;BME280;21561;55.654;37.592;2023-10-13T00:23:44;97967.59;;;8.37;100.00
35443;BME280;21561;55.654;37.592;2023-10-13T00:26:21;97982.38;;;8.32;100.00
35443;BME280;21561;55.654;37.592;2023-10-13T00:28:59;97980.66;;;8.31;100.00
35443;BME280;21561;55.654;37.592;2023-10-13T00:31:43;97998.03;;;8.26;100.00
35443;BME280;21561;55.654;37.592;2023-10-13T00:34:15;97983.34;;;8.28;100.00
35443;BME280;21561;55.654;37.592;2023-10-13T00:36:42;97990.19;;;8.29;100.00
35443;BME280;21561;55.654;37.592;2023-10-13T00:39:15;97996.28;;;8.26;100.00
35443;BME280;21561;55.654;37.592;2023-10-13T00:41:43;97999.78;;;8.23;100.00
35443;BME280;21561;55.654;37.592;2023-10-13T00:44:24;98000.72;;;8.21;100.00
35443;BME280;21561;55.654;37.592;2023-10-13T00:47:16;98006.75;;;8.20;100.00
35443;BME280;21561;55.654;37.592;2023-10-13T00:50:04;97999.88;;;8.20;100.00
35443;BME280;21561;55.654;37.592;2023-10-13T00:52:34;97997.19;;;8.23;100.00
35443;BME280;21561;55.654;37.592;2023-10-13T00:55:04;97993.81;;;8.21;100.00
35443;BME280;21561;55.654;37.592;2023-10-13T00:57:32;97984.38;;;8.20;100.00
35443;BME280;21561;55.654;37.592;2023-10-13T01:00:00;97996.25;;;8.28;100.00
35443;BME280;21561;55.654;37.592;2023-10-13T01:02:39;98003.28;;;8.22;100.00
35443;BME280;21561;55.654;37.592;2023-10-13T01:05:07;97998.09;;;8.22;100.00
35443;BME280;21561;55.654;37.592;2023-10-13T01:07:49;98008.41;;;8.24;100.00
35443;BME280;21561;55.654;37.592;2023-10-13T01:10:22;97997.19;;;8.23;100.00
35443;BME280;21561;55.654;37.592;2023-10-13T01:12:54;98017.88;;;8.23;100.00
35443;BME280;21561;55.654;37.592;2023-10-13T01:15:21;98010.19;;;8.22;100.00
35443;BME280;21561;55.654;37.592;2023-10-13T01:17:48;98000.63;;;8.26;100.00
35443;BME280;21561;55.654;37.592;2023-10-13T01:20:16;98002.31;;;8.27;100.00
35443;BME280;21561;55.654;37.592;2023-10-13T01:22:52;98007.53;;;8.23;100.00
35443;BME280;21561;55.654;37.592;2023-10-13T01:25:23;98014.41;;;8.25;100.00
35443;BME280;21561;55.654;37.592;2023-10-13T01:27:54;98043.69;;;8.25;100.00
35443;BME280;21561;55.654;37.592;2023-10-13T01:30:21;98010.88;;;8.29;100.00
35443;BME280;21561;55.654;37.592;2023-10-13T01:32:53;98017.75;;;8.30;100.00
35443;BME280;21561;55.654;37.592;2023-10-13T01:35:21;98028.16;;;8.27;100.00
35443;BME280;21561;55.654;37.592;2023-10-13T01:38:03;98014.34;;;8.28;100.00
35443;BME280;21561;55.654;37.592;2023-10-13T01:40:30;98012.56;;;8.30;100.00
35443;BME280;21561;55.654;37.592;2023-10-13T01:43:01;98024.69;;;8.28;100.00
35443;BME280;21561;55.654;37.592;2023-10-13T01:45:28;98016.00;;;8.30;100.00
35443;BME280;21561;55.654;37.592;2023-10-13T01:47:58;98035.03;;;8.28;100.00
35443;BME280;21561;55.654;37.592;2023-10-13T01:50:25;98023.03;;;8.23;100.00
35443;BME280;21561;55.654;37.592;2023-10-13T01:52:56;98030.09;;;8.18;100.00
35443;BME280;21561;55.654;37.592;2023-10-13T01:55:39;98033.38;;;8.23;100.00
35443;BME280;21561;55.654;37.592;2023-10-13T01:58:14;98051.41;;;8.27;100.00
35443;BME280;21561;55.654;37.592;2023-10-13T02:00:42;98033.31;;;8.27;100.00
35443;BME280;21561;55.654;37.592;2023-10-13T02:03:10;98024.91;;;8.18;100.00
35443;BME280;21561;55.654;37.592;2023-10-13T02:05:46;98048.97;;;8.20;100.00
35443;BME280;21561;55.654;37.592;2023-10-13T02:08:19;98036.88;;;8.22;100.00
35443;BME280;21561;55.654;37.592;2023-10-13T02:10:54;98035.97;;;8.23;100.00
35443;BME280;21561;55.654;37.592;2023-10-13T02:13:23;98047.19;;;8.22;100.00
35443;BME280;21561;55.654;37.592;2023-10-13T02:15:56;98041.22;;;8.20;100.00
35443;BME280;21561;55.654;37.592;2023-10-13T02:18:24;98035.84;;;8.30;100.00
35443;BME280;21561;55.654;37.592;2023-10-13T02:21:02;98060.91;;;8.26;100.00
35443;BME280;21561;55.654;37.592;2023-10-13T02:23:31;98072.22;;;8.20;100.00
35443;BME280;21561;55.654;37.592;2023-10-13T02:26:01;98041.97;;;8.26;100.00
35443;BME280;21561;55.654;37.592;2023-10-13T02:28:30;98056.69;;;8.22;100.00
35443;BME280;21561;55.654;37.592;2023-10-13T02:31:02;98066.09;;;8.25;100.00
35443;BME280;21561;55.654;37.592;2023-10-13T02:33:30;98063.56;;;8.21;100.00
35443;BME280;21561;55.654;37.592;2023-10-13T02:36:02;98064.38;;;8.23;100.00
35443;BME280;21561;55.654;37.592;2023-10-13T02:38:32;98062.72;;;8.22;100.00
35443;BME280;21561;55.654;37.592;2023-10-13T02:41:03;98065.16;;;8.27;100.00
35443;BME280;21561;55.654;37.592;2023-10-13T02:43:34;98070.44;;;8.24;100.00
35443;BME280;21561;55.654;37.592;2023-10-13T02:46:03;98066.25;;;8.18;100.00
35443;BME280;21561;55.654;37.592;2023-10-13T02:48:30;98077.38;;;8.22;100.00
35443;BME280;21561;55.654;37.592;2023-10-13T02:51:07;98090.31;;;8.20;100.00
35443;BME280;21561;55.654;37.592;2023-10-13T02:54:02;98111.06;;;8.16;100.00
35443;BME280;21561;55.654;37.592;2023-10-13T02:56:29;98085.28;;;8.14;100.00
35443;BME280;21561;55.654;37.592;2023-10-13T02:58:56;98087.00;;;8.14;100.00
35443;BME280;21561;55.654;37.592;2023-10-13T03:01:23;98105.97;;;8.13;100.00
35443;BME280;21561;55.654;37.592;2023-10-13T03:04:04;98102.53;;;8.12;100.00
35443;BME280;21561;55.654;37.592;2023-10-13T03:06:36;98110.28;;;8.12;100.00
35443;BME280;21561;55.654;37.592;2023-10-13T03:09:10;98108.66;;;8.08;100.00
35443;BME280;21561;55.654;37.592;2023-10-13T03:11:42;98108.84;;;8.00;100.00
35443;BME280;21561;55.654;37.592;2023-10-13T03:14:22;98096.81;;;7.99;100.00
35443;BME280;21561;55.654;37.592;2023-10-13T03:16:58;98126.09;;;7.98;100.00
35443;BME280;21561;55.654;37.592;2023-10-13T03:19:46;98108.06;;;7.97;100.00
35443;BME280;21561;55.654;37.592;2023-10-13T03:22:21;98121.84;;;7.96;100.00
35443;BME280;21561;55.654;37.592;2023-10-13T03:24:59;98108.13;;;7.94;100.00
35443;BME280;21561;55.654;37.592;2023-10-13T03:27:36;98120.88;;;8.01;100.00
35443;BME280;21561;55.654;37.592;2023-10-13T03:30:07;98131.91;;;8.08;100.00
35443;BME280;21561;55.654;37.592;2023-10-13T03:32:37;98116.63;;;7.99;100.00
35443;BME280;21561;55.654;37.592;2023-10-13T03:35:10;98115.91;;;7.91;100.00
35443;BME280;21561;55.654;37.592;2023-10-13T03:37:40;98109.16;;;7.85;100.00
35443;BME280;21561;55.654;37.592;2023-10-13T03:40:11;98120.28;;;7.89;100.00
35443;BME280;21561;55.654;37.592;2023-10-13T03:42:53;98103.00;;;7.91;100.00
35443;BME280;21561;55.654;37.592;2023-10-13T03:45:40;98122.88;;;7.87;100.00
35443;BME280;21561;55.654;37.592;2023-10-13T03:48:14;98122.91;;;7.86;100.00
35443;BME280;21561;55.654;37.592;2023-10-13T03:51:02;98129.81;;;7.85;100.00
35443;BME280;21561;55.654;37.592;2023-10-13T03:53:42;98148.06;;;7.77;100.00
35443;BME280;21561;55.654;37.592;2023-10-13T03:56:28;98137.69;;;7.79;100.00
35443;BME280;21561;55.654;37.592;2023-10-13T03:59:06;98145.38;;;7.80;100.00
35443;BME280;21561;55.654;37.592;2023-10-13T04:01:36;98150.63;;;7.79;100.00
35443;BME280;21561;55.654;37.592;2023-10-13T04:04:14;98167.78;;;7.80;100.00
35443;BME280;21561;55.654;37.592;2023-10-13T04:07:00;98177.31;;;7.76;100.00
35443;BME280;21561;55.654;37.592;2023-10-13T04:09:37;98179.00;;;7.79;99.33
35443;BME280;21561;55.654;37.592;2023-10-13T04:12:05;98183.22;;;7.84;99.93
35443;BME280;21561;55.654;37.592;2023-10-13T04:14:36;98206.44;;;7.84;99.72
35443;BME280;21561;55.654;37.592;2023-10-13T04:17:12;98191.00;;;7.81;99.24
35443;BME280;21561;55.654;37.592;2023-10-13T04:19:43;98203.09;;;7.79;99.14
35443;BME280;21561;55.654;37.592;2023-10-13T04:22:41;98198.91;;;7.74;99.81
35443;BME280;21561;55.654;37.592;2023-10-13T04:25:26;98196.41;;;7.69;99.84
35443;BME280;21561;55.654;37.592;2023-10-13T04:28:25;98211.06;;;7.67;99.89
35443;BME280;21561;55.654;37.592;2023-10-13T04:31:04;98212.72;;;7.70;99.80
35443;BME280;21561;55.654;37.592;2023-10-13T04:33:51;98200.78;;;7.64;99.92
35443;BME280;21561;55.654;37.592;2023-10-13T04:36:28;98207.66;;;7.67;100.00
35443;BME280;21561;55.654;37.592;2023-10-13T04:38:56;98244.69;;;7.64;100.00
35443;BME280;21561;55.654;37.592;2023-10-13T04:41:27;98223.06;;;7.70;100.00
35443;BME280;21561;55.654;37.592;2023-10-13T04:44:13;98239.44;;;7.70;99.41
35443;BME280;21561;55.654;37.592;2023-10-13T04:47:00;98255.75;;;7.71;99.06
35443;BME280;21561;55.654;37.592;2023-10-13T04:49:30;98265.06;;;7.79;98.95
35443;BME280;21561;55.654;37.592;2023-10-13T04:52:13;98254.78;;;7.76;98.69
35443;BME280;21561;55.654;37.592;2023-10-13T04:54:53;98259.91;;;7.79;97.57
35443;BME280;21561;55.654;37.592;2023-10-13T04:57:23;98268.44;;;7.84;97.35
35443;BME280;21561;55.654;37.592;2023-10-13T05:00:00;98271.00;;;7.84;97.26
35443;BME280;21561;55.654;37.592;2023-10-13T05:02:31;98276.94;;;7.90;96.70
35443;BME280;21561;55.654;37.592;2023-10-13T05:05:18;98292.50;;;7.87;96.61
35443;BME280;21561;55.654;37.592;2023-10-13T05:07:47;98282.13;;;7.90;97.11
35443;BME280;21561;55.654;37.592;2023-10-13T05:10:35;98272.56;;;7.93;96.13
35443;BME280;21561;55.654;37.592;2023-10-13T05:13:40;98324.25;;;7.93;96.07
35443;BME280;21561;55.654;37.592;2023-10-13T05:16:26;98291.47;;;7.95;96.10
35443;BME280;21561;55.654;37.592;2023-10-13T05:19:11;98278.47;;;8.00;96.04
35443;BME280;21561;55.654;37.592;2023-10-13T05:21:57;98285.38;;;7.99;96.06
35443;BME280;21561;55.654;37.592;2023-10-13T05:24:43;98299.13;;;8.00;95.52
35443;BME280;21561;55.654;37.592;2023-10-13T05:27:29;98317.16;;;8.03;95.48
35443;BME280;21561;55.654;37.592;2023-10-13T05:30:14;98306.84;;;8.01;95.19
35443;BME280;21561;55.654;37.592;2023-10-13T05:33:00;98279.22;;;8.05;95.48
35443;BME280;21561;55.654;37.592;2023-10-13T05:35:45;98313.66;;;8.06;95.59
35443;BME280;21561;55.654;37.592;2023-10-13T05:38:31;98312.78;;;8.07;95.34
35443;BME280;21561;55.654;37.592;2023-10-13T05:41:16;98328.28;;;8.08;95.29
35443;BME280;21561;55.654;37.592;2023-10-13T05:44:02;98326.38;;;8.16;93.77
35443;BME280;21561;55.654;37.592;2023-10-13T05:46:47;98340.06;;;8.21;93.71
35443;BME280;21561;55.654;37.592;2023-10-13T05:49:33;98334.88;;;8.23;92.87
35443;BME280;21561;55.654;37.592;2023-10-13T05:52:16;98362.41;;;8.26;92.46
35443;BME280;21561;55.654;37.592;2023-10-13T05:54:47;98341.66;;;8.29;92.75
35443;BME280;21561;55.654;37.592;2023-10-13T05:57:32;98340.81;;;8.28;91.94
35443;BME280;21561;55.654;37.592;2023-10-13T06:00:20;98348.50;;;8.33;91.94
35443;BME280;21561;55.654;37.592;2023-10-13T06:03:06;98369.16;;;8.33;91.12
35443;BME280;21561;55.654;37.592;2023-10-13T06:05:51;98355.34;;;8.34;91.32
35443;BME280;21561;55.654;37.592;2023-10-13T06:08:37;98370.84;;;8.34;91.07
35443;BME280;21561;55.654;37.592;2023-10-13T06:11:22;98353.56;;;8.37;91.48
35443;BME280;21561;55.654;37.592;2023-10-13T06:14:08;98367.31;;;8.38;91.14
35443;BME280;21561;55.654;37.592;2023-10-13T06:16:53;98363.00;;;8.40;90.04
35443;BME280;21561;55.654;37.592;2023-10-13T06:19:40;98396.63;;;8.40;89.53
35443;BME280;21561;55.654;37.592;2023-10-13T06:22:25;98421.56;;;8.43;88.46
35443;BME280;21561;55.654;37.592;2023-10-13T06:25:11;98387.03;;;8.45;88.72
35443;BME280;21561;55.654;37.592;2023-10-13T06:27:57;98375.84;;;8.46;87.29
35443;BME280;21561;55.654;37.592;2023-10-13T06:30:53;98399.06;;;8.48;86.78
35443;BME280;21561;55.654;37.592;2023-10-13T06:33:23;98393.06;;;8.47;87.42
35443;BME280;21561;55.654;37.592;2023-10-13T06:35:56;98402.47;;;8.50;87.36
35443;BME280;21561;55.654;37.592;2023-10-13T06:38:24;98436.06;;;8.51;86.67
35443;BME280;21561;55.654;37.592;2023-10-13T06:40:51;98400.69;;;8.53;87.13
35443;BME280;21561;55.654;37.592;2023-10-13T06:43:19;98444.66;;;8.52;85.43
35443;BME280;21561;55.654;37.592;2023-10-13T06:45:49;98439.47;;;8.53;85.24
35443;BME280;21561;55.654;37.592;2023-10-13T06:48:28;98418.75;;;8.56;84.62
35443;BME280;21561;55.654;37.592;2023-10-13T06:51:01;98414.44;;;8.55;83.38
35443;BME280;21561;55.654;37.592;2023-10-13T06:53:45;98436.72;;;8.63;82.99
35443;BME280;21561;55.654;37.592;2023-10-13T06:56:15;98432.44;;;8.62;83.41
35443;BME280;21561;55.654;37.592;2023-10-13T06:58:57;98427.31;;;8.58;83.02
35443;BME280;21561;55.654;37.592;2023-10-13T07:01:31;98447.22;;;8.55;83.32
35443;BME280;21561;55.654;37.592;2023-10-13T07:04:09;98465.38;;;8.50;83.81
35443;BME280;21561;55.654;37.592;2023-10-13T07:06:43;98452.53;;;8.46;84.02
35443;BME280;21561;55.654;37.592;2023-10-13T07:09:17;98477.47;;;8.48;82.52
35443;BME280;21561;55.654;37.592;2023-10-13T07:12:04;98439.53;;;8.50;82.35
35443;BME280;21561;55.654;37.592;2023-10-13T07:14:47;98475.63;;;8.56;81.84
35443;BME280;21561;55.654;37.592;2023-10-13T07:17:25;98473.81;;;8.62;81.89
35443;BME280;21561;55.654;37.592;2023-10-13T07:19:53;98470.28;;;8.66;79.92
35443;BME280;21561;55.654;37.592;2023-10-13T07:22:22;98497.84;;;8.67;80.86
35443;BME280;21561;55.654;37.592;2023-10-13T07:24:50;98468.47;;;8.71;81.75
35443;BME280;21561;55.654;37.592;2023-10-13T07:27:21;98494.16;;;8.80;82.26
35443;BME280;21561;55.654;37.592;2023-10-13T07:29:55;98476.09;;;8.77;80.61
35443;BME280;21561;55.654;37.592;2023-10-13T07:32:23;98534.72;;;8.78;80.45
35443;BME280;21561;55.654;37.592;2023-10-13T07:34:53;98517.53;;;8.74;80.67
35443;BME280;21561;55.654;37.592;2023-10-13T07:37:24;98476.22;;;8.72;80.76
35443;BME280;21561;55.654;37.592;2023-10-13T07:39:57;98502.69;;;8.85;80.70
35443;BME280;21561;55.654;37.592;2023-10-13T07:42:27;98502.75;;;8.82;79.20
35443;BME280;21561;55.654;37.592;2023-10-13T07:45:14;98495.81;;;8.84;79.62
35443;BME280;21561;55.654;37.592;2023-10-13T07:47:44;98532.84;;;8.86;78.58
35443;BME280;21561;55.654;37.592;2023-10-13T07:50:13;98540.69;;;8.83;77.64
35443;BME280;21561;55.654;37.592;2023-10-13T07:52:40;98542.44;;;8.81;77.87
35443;BME280;21561;55.654;37.592;2023-10-13T07:55:25;98539.00;;;8.79;76.69
35443;BME280;21561;55.654;37.592;2023-10-13T07:57:52;98513.00;;;8.88;77.10
35443;BME280;21561;55.654;37.592;2023-10-13T08:00:24;98570.59;;;8.98;76.10
35443;BME280;21561;55.654;37.592;2023-10-13T08:03:00;98550.72;;;8.98;74.82
35443;BME280;21561;55.654;37.592;2023-10-13T08:05:52;98552.41;;;9.03;73.54
35443;BME280;21561;55.654;37.592;2023-10-13T08:08:38;98558.31;;;9.08;72.80
35443;BME280;21561;55.654;37.592;2023-10-13T08:11:10;98568.53;;;9.17;71.85
35443;BME280;21561;55.654;37.592;2023-10-13T08:13:59;98555.50;;;9.20;71.82
35443;BME280;21561;55.654;37.592;2023-10-13T08:16:39;98551.91;;;9.27;72.08
35443;BME280;21561;55.654;37.592;2023-10-13T08:19:24;98562.09;;;9.36;71.96
35443;BME280;21561;55.654;37.592;2023-10-13T08:21:55;98571.78;;;9.27;70.73
35443;BME280;21561;55.654;37.592;2023-10-13T08:24:26;98578.69;;;9.26;70.93
35443;BME280;21561;55.654;37.592;2023-10-13T08:27:14;98572.44;;;9.36;70.64
35443;BME280;21561;55.654;37.592;2023-10-13T08:32:18;98602.38;;;9.53;69.33
35443;BME280;21561;55.654;37.592;2023-10-13T08:34:51;98604.94;;;9.53;68.33
35443;BME280;21561;55.654;37.592;2023-10-13T08:37:21;98603.28;;;9.49;68.20
35443;BME280;21561;55.654;37.592;2023-10-13T08:39:50;98614.50;;;9.49;68.08
35443;BME280;21561;55.654;37.592;2023-10-13T08:42:53;98629.94;;;9.55;66.63
35443;BME280;21561;55.654;37.592;2023-10-13T08:45:36;98615.13;;;9.62;66.86
35443;BME280;21561;55.654;37.592;2023-10-13T08:48:05;98593.53;;;9.62;66.00
35443;BME280;21561;55.654;37.592;2023-10-13T08:50:51;98627.09;;;9.68;65.39
35443;BME280;21561;55.654;37.592;2023-10-13T08:53:27;98620.94;;;9.73;65.24
35443;BME280;21561;55.654;37.592;2023-10-13T08:58:49;98638.88;;;9.83;64.01
35443;BME280;21561;55.654;37.592;2023-10-13T09:04:12;98657.78;;;9.88;63.99
35443;BME280;21561;55.654;37.592;2023-10-13T09:12:12;98649.06;;;9.92;63.19
35443;BME280;21561;55.654;37.592;2023-10-13T09:14:43;98650.44;;;10.08;63.78
35443;BME280;21561;55.654;37.592;2023-10-13T09:17:29;98658.13;;;10.13;63.07
35443;BME280;21561;55.654;37.592;2023-10-13T09:20:06;98639.84;;;10.19;62.54
35443;BME280;21561;55.654;37.592;2023-10-13T09:22:56;98655.25;;;10.27;62.56
35443;BME280;21561;55.654;37.592;2023-10-13T09:25:32;98680.28;;;10.28;61.53
35443;BME280;21561;55.654;37.592;2023-10-13T09:28:14;98699.22;;;10.33;60.85
35443;BME280;21561;55.654;37.592;2023-10-13T09:30:50;98655.13;;;10.33;61.40
35443;BME280;21561;55.654;37.592;2023-10-13T09:33:27;98699.00;;;10.44;60.76
35443;BME280;21561;55.654;37.592;2023-10-13T09:36:07;98672.31;;;10.37;61.10
35443;BME280;21561;55.654;37.592;2023-10-13T09:38:35;98675.78;;;10.39;61.11
35443;BME280;21561;55.654;37.592;2023-10-13T09:41:15;98703.34;;;10.43;60.63
35443;BME280;21561;55.654;37.592;2023-10-13T09:43:45;98731.00;;;10.43;61.25
35443;BME280;21561;55.654;37.592;2023-10-13T09:46:19;98677.34;;;10.46;61.32
35443;BME280;21561;55.654;37.592;2023-10-13T09:48:50;98698.00;;;10.49;60.53
35443;BME280;21561;55.654;37.592;2023-10-13T09:51:31;98718.69;;;10.53;60.93
35443;BME280;21561;55.654;37.592;2023-10-13T09:54:37;98725.66;;;10.50;61.29
35443;BME280;21561;55.654;37.592;2023-10-13T09:57:15;98705.78;;;10.49;61.86
35443;BME280;21561;55.654;37.592;2023-10-13T09:59:49;98723.81;;;10.56;61.72
35443;BME280;21561;55.654;37.592;2023-10-13T10:02:19;98712.59;;;10.55;62.21
35443;BME280;21561;55.654;37.592;2023-10-13T10:04:56;98722.03;;;10.58;62.35
35443;BME280;21561;55.654;37.592;2023-10-13T10:07:39;98718.47;;;10.62;62.42
35443;BME280;21561;55.654;37.592;2023-10-13T10:10:07;98727.97;;;10.63;61.87
35443;BME280;21561;55.654;37.592;2023-10-13T10:12:48;98714.75;;;10.75;62.39
35443;BME280;21561;55.654;37.592;2023-10-13T10:18:03;98738.63;;;10.89;59.80
35443;BME280;21561;55.654;37.592;2023-10-13T10:20:31;98698.28;;;11.46;58.48
35443;BME280;21561;55.654;37.592;2023-10-13T10:23:25;98663.50;;;12.45;55.04
35443;BME280;21561;55.654;37.592;2023-10-13T10:25:54;98653.00;;;13.03;53.28
35443;BME280;21561;55.654;37.592;2023-10-13T10:28:42;98622.56;;;13.05;51.23
35443;BME280;21561;55.654;37.592;2023-10-13T10:31:11;98703.69;;;12.64;51.63
35443;BME280;21561;55.654;37.592;2023-10-13T10:33:43;98711.06;;;12.20;52.96
35443;BME280;21561;55.654;37.592;2023-10-13T10:36:11;98743.50;;;12.07;53.85
35443;BME280;21561;55.654;37.592;2023-10-13T10:38:54;98758.53;;;12.28;54.04
35443;BME280;21561;55.654;37.592;2023-10-13T10:41:27;98701.09;;;12.64;52.57
35443;BME280;21561;55.654;37.592;2023-10-13T10:44:13;98628.16;;;13.19;49.96
35443;BME280;21561;55.654;37.592;2023-10-13T10:46:43;98627.59;;;13.36;49.60
35443;BME280;21561;55.654;37.592;2023-10-13T10:49:27;98578.84;;;14.10;48.22
35443;BME280;21561;55.654;37.592;2023-10-13T10:52:03;98568.34;;;14.56;47.02
35443;BME280;21561;55.654;37.592;2023-10-13T10:54:32;98526.38;;;14.83;46.22
35443;BME280;21561;55.654;37.592;2023-10-13T10:57:00;98462.22;;;15.17;44.53
35443;BME280;21561;55.654;37.592;2023-10-13T10:59:46;98431.69;;;15.17;44.36
35443;BME280;21561;55.654;37.592;2023-10-13T11:02:13;98456.13;;;15.16;44.30
35443;BME280;21561;55.654;37.592;2023-10-13T11:04:42;98382.13;;;14.97;41.88
35443;BME280;21561;55.654;37.592;2023-10-13T11:07:25;98478.16;;;14.69;42.44
35443;BME280;21561;55.654;37.592;2023-10-13T11:09:52;98492.06;;;14.27;43.14
35443;BME280;21561;55.654;37.592;2023-10-13T11:12:19;98480.63;;;14.52;42.37
35443;BME280;21561;55.654;37.592;2023-10-13T11:15:03;98511.22;;;14.70;42.13
35443;BME280;21561;55.654;37.592;2023-10-13T11:17:36;98485.00;;;14.09;42.10
35443;BME280;21561;55.654;37.592;2023-10-13T11:20:11;98532.19;;;14.25;42.51
35443;BME280;21561;55.654;37.592;2023-10-13T11:22:49;98590.25;;;14.52;42.38
35443;BME280;21561;55.654;37.592;2023-10-13T11:25:24;98585.16;;;14.49;42.95
35443;BME280;21561;55.654;37.592;2023-10-13T11:28:15;98615.38;;;14.32;43.37
35443;BME280;21561;55.654;37.592;2023-10-13T11:30:55;98653.25;;;13.97;43.54
35443;BME280;21561;55.654;37.592;2023-10-13T11:33:26;98639.47;;;13.93;43.17
35443;BME280;21561;55.654;37.592;2023-10-13T11:35:58;98622.09;;;13.92;43.01
35443;BME280;21561;55.654;37.592;2023-10-13T11:38:34;98639.75;;;14.09;42.47
35443;BME280;21561;55.654;37.592;2023-10-13T11:41:06;98646.28;;;14.21;42.93
35443;BME280;21561;55.654;37.592;2023-10-13T11:43:41;98662.81;;;14.20;43.09
35443;BME280;21561;55.654;37.592;2023-10-13T11:46:12;98648.16;;;13.69;43.23
35443;BME280;21561;55.654;37.592;2023-10-13T11:48:45;98657.25;;;13.82;43.14
35443;BME280;21561;55.654;37.592;2023-10-13T11:51:14;98656.31;;;13.60;43.02
35443;BME280;21561;55.654;37.592;2023-10-13T11:53:50;98690.78;;;13.43;43.61
35443;BME280;21561;55.654;37.592;2023-10-13T11:56:22;98705.13;;;13.28;43.74
35443;BME280;21561;55.654;37.592;2023-10-13T11:58:50;98731.34;;;13.51;43.81
35443;BME280;21561;55.654;37.592;2023-10-13T12:01:17;98724.94;;;13.60;43.84
35443;BME280;21561;55.654;37.592;2023-10-13T12:03:47;98722.88;;;13.70;43.84
35443;BME280;21561;55.654;37.592;2023-10-13T12:06:34;98739.00;;;13.81;43.73
35443;BME280;21561;55.654;37.592;2023-10-13T12:09:06;98715.88;;;13.96;43.36
35443;BME280;21561;55.654;37.592;2023-10-13T12:11:59;98725.78;;;14.11;43.85
35443;BME280;21561;55.654;37.592;2023-10-13T12:14:27;98720.91;;;14.02;44.24
35443;BME280;21561;55.654;37.592;2023-10-13T12:16:56;98760.91;;;14.01;44.51
35443;BME280;21561;55.654;37.592;2023-10-13T12:19:30;98722.25;;;14.12;43.57
35443;BME280;21561;55.654;37.592;2023-10-13T12:21:57;98684.19;;;14.30;42.36
35443;BME280;21561;55.654;37.592;2023-10-13T12:24:30;98652.22;;;14.25;42.32
35443;BME280;21561;55.654;37.592;2023-10-13T12:27:04;98659.78;;;14.09;42.43
35443;BME280;21561;55.654;37.592;2023-10-13T12:29:52;98685.31;;;13.99;43.36
35443;BME280;21561;55.654;37.592;2023-10-13T12:32:19;98713.41;;;14.40;42.83
35443;BME280;21561;55.654;37.592;2023-10-13T12:34:52;98660.91;;;14.47;42.58
35443;BME280;21561;55.654;37.592;2023-10-13T12:37:32;98667.34;;;14.39;42.54
35443;BME280;21561;55.654;37.592;2023-10-13T12:40:06;98691.84;;;14.35;43.31
35443;BME280;21561;55.654;37.592;2023-10-13T12:42:52;98697.41;;;14.25;42.88
35443;BME280;21561;55.654;37.592;2023-10-13T12:45:41;98704.84;;;14.36;42.99
35443;BME280;21561;55.654;37.592;2023-10-13T12:48:28;98709.09;;;14.39;43.11
35443;BME280;21561;55.654;37.592;2023-10-13T12:51:13;98694.53;;;14.55;42.56
35443;BME280;21561;55.654;37.592;2023-10-13T12:53:51;98645.75;;;14.57;41.82
35443;BME280;21561;55.654;37.592;2023-10-13T12:56:19;98678.28;;;14.72;42.32
35443;BME280;21561;55.654;37.592;2023-10-13T12:58:52;98636.16;;;14.80;41.12
35443;BME280;21561;55.654;37.592;2023-10-13T13:01:22;98625.50;;;14.64;41.32
35443;BME280;21561;55.654;37.592;2023-10-13T13:03:50;98646.63;;;14.58;42.01
35443;BME280;21561;55.654;37.592;2023-10-13T13:06:18;98675.16;;;14.84;41.77
35443;BME280;21561;55.654;37.592;2023-10-13T13:08:52;98641.53;;;14.53;41.61
35443;BME280;21561;55.654;37.592;2023-10-13T13:11:19;98706.19;;;13.99;43.04
35443;BME280;21561;55.654;37.592;2023-10-13T13:13:50;98777.31;;;13.52;44.29
35443;BME280;21561;55.654;37.592;2023-10-13T13:16:18;98857.44;;;13.17;45.30
35443;BME280;21561;55.654;37.592;2023-10-13T13:18:46;98901.78;;;12.85;45.50
35443;BME280;21561;55.654;37.592;2023-10-13T13:21:13;98932.06;;;12.56;46.29
35443;BME280;21561;55.654;37.592;2023-10-13T13:23:46;98985.16;;;12.49;46.83
35443;BME280;21561;55.654;37.592;2023-10-13T13:26:13;99020.28;;;12.32;46.93
35443;BME280;21561;55.654;37.592;2023-10-13T13:28:45;99031.94;;;12.16;47.35
35443;BME280;21561;55.654;37.592;2023-10-13T13:31:12;99051.16;;;12.09;47.59
35443;BME280;21561;55.654;37.592;2023-10-13T13:33:39;99084.44;;;11.94;48.34
35443;BME280;21561;55.654;37.592;2023-10-13T13:36:10;99115.78;;;11.85;48.97
35443;BME280;21561;55.654;37.592;2023-10-13T13:38:43;99117.63;;;11.80;48.53
35443;BME280;21561;55.654;37.592;2023-10-13T13:41:17;99123.69;;;11.79;49.29
35443;BME280;21561;55.654;37.592;2023-10-13T13:43:48;99135.47;;;11.98;48.91
35443;BME280;21561;55.654;37.592;2023-10-13T13:46:28;99042.31;;;12.53;47.52
35443;BME280;21561;55.654;37.592;2023-10-13T13:48:59;98967.56;;;12.91;46.25
35443;BME280;21561;55.654;37.592;2023-10-13T13:51:28;98914.91;;;13.11;45.45
35443;BME280;21561;55.654;37.592;2023-10-13T13:53:55;98873.06;;;13.17;44.51